Time;durP1;ratioP1;P1;durP2;ratioP2;P2;SDS_P1;SDS_P2;PMS_P1;PMS_P2;Temp;Humidity;BMP_temperature;BMP_pressure;BME280_temperature;BME280_humidity;BME280_pressure;Samples;Min_cycle;Max_cycle;Signal;HPM_P1;HPM_P2
2022/01/27 00:01:40;;;;;;;32.47;13.30;;;1.60;99.90;;;;;;5013093;28;20050;-87
2022/01/27 00:04:16;;;;;;;31.88;14.45;;;1.60;99.90;;;;;;5012140;28;20092;-88
2022/01/27 00:06:43;;;;;;;36.42;14.68;;;1.60;99.90;;;;;;5012040;28;20411;-87
2022/01/27 00:09:16;;;;;;;33.13;14.23;;;1.60;99.90;;;;;;5012035;28;20049;-87
2022/01/27 00:11:46;;;;;;;33.60;14.23;;;1.60;99.90;;;;;;5012036;28;20052;-88
2022/01/27 00:14:15;;;;;;;32.28;13.75;;;1.60;99.90;;;;;;5012284;28;20050;-87
2022/01/27 00:16:52;;;;;;;34.45;14.80;;;1.70;99.90;;;;;;5013705;28;20054;-88
2022/01/27 00:19:18;;;;;;;32.20;13.68;;;1.70;99.90;;;;;;5013219;28;20053;-88
2022/01/27 00:21:45;;;;;;;31.98;13.25;;;1.70;99.90;;;;;;5013131;28;20501;-87
2022/01/27 00:24:12;;;;;;;35.22;14.02;;;1.60;99.90;;;;;;5015588;28;20050;-87
2022/01/27 00:26:40;;;;;;;30.15;13.30;;;1.60;99.90;;;;;;5016477;28;20053;-87
2022/01/27 00:29:07;;;;;;;30.05;13.98;;;1.70;99.90;;;;;;5016622;28;20104;-87
2022/01/27 00:31:33;;;;;;;29.38;13.63;;;1.70;99.90;;;;;;5015287;28;20057;-87
2022/01/27 00:34:03;;;;;;;32.20;13.48;;;1.70;99.90;;;;;;5015541;28;20509;-87
2022/01/27 00:36:32;;;;;;;28.83;13.15;;;1.70;99.90;;;;;;5015338;28;20046;-88
2022/01/27 00:38:59;;;;;;;29.90;13.82;;;1.70;99.90;;;;;;5015453;28;20093;-86
2022/01/27 00:41:27;;;;;;;29.48;13.10;;;1.70;99.90;;;;;;5015616;28;20050;-87
2022/01/27 00:43:54;;;;;;;32.42;13.40;;;1.70;99.90;;;;;;5015488;28;20045;-88
2022/01/27 00:46:21;;;;;;;26.17;12.65;;;1.70;99.90;;;;;;5015324;28;20053;-88
2022/01/27 00:48:49;;;;;;;28.15;12.00;;;1.70;99.90;;;;;;5015623;28;20068;-87
2022/01/27 00:51:22;;;;;;;28.38;12.85;;;1.60;99.90;;;;;;5015403;28;20140;-88
2022/01/27 00:54:01;;;;;;;28.45;12.60;;;1.70;99.90;;;;;;5015357;28;20447;-88
2022/01/27 00:56:53;;;;;;;27.83;12.82;;;1.60;99.90;;;;;;5015257;28;20052;-87
2022/01/27 00:59:27;;;;;;;27.05;11.77;;;1.60;99.90;;;;;;5016248;28;20060;-86
2022/01/27 01:02:07;;;;;;;24.70;11.40;;;1.60;99.90;;;;;;5015245;28;20120;-86
2022/01/27 01:04:38;;;;;;;24.23;10.65;;;1.70;99.90;;;;;;5015725;28;20052;-88
2022/01/27 01:07:06;;;;;;;26.55;12.68;;;1.70;99.90;;;;;;5016040;28;20133;-87
2022/01/27 01:10:19;;;;;;;22.45;11.25;;;1.60;99.90;;;;;;5014763;28;20411;-87
2022/01/27 01:15:16;;;;;;;21.13;11.13;;;1.60;99.90;;;;;;5015670;28;20054;-88
2022/01/27 01:18:03;;;;;;;25.60;11.63;;;1.70;99.90;;;;;;5015704;28;20057;-87
2022/01/27 01:33:57;;;;;;;25.00;11.60;;;1.60;99.90;;;;;;5014832;28;20053;-88
2022/01/27 01:36:43;;;;;;;24.38;10.95;;;1.70;99.90;;;;;;5014330;28;20056;-87
2022/01/27 01:39:12;;;;;;;21.42;10.73;;;1.60;99.90;;;;;;5014271;28;20058;-88
2022/01/27 01:41:40;;;;;;;21.75;10.40;;;1.60;99.90;;;;;;5014289;28;20043;-87
2022/01/27 01:44:08;;;;;;;22.42;10.55;;;1.60;99.90;;;;;;5013895;28;20129;-87
2022/01/27 01:46:35;;;;;;;18.58;9.60;;;1.60;99.90;;;;;;5014044;28;20494;-87
2022/01/27 01:49:03;;;;;;;21.95;9.82;;;1.70;99.90;;;;;;5030721;28;20048;-87
2022/01/27 01:51:32;;;;;;;19.67;9.38;;;1.70;99.90;;;;;;5015027;28;20100;-88
2022/01/27 01:53:59;;;;;;;19.33;10.15;;;1.70;99.90;;;;;;5030271;28;20060;-88
2022/01/27 01:56:26;;;;;;;23.15;10.40;;;1.70;99.90;;;;;;5013373;28;20045;-87
2022/01/27 01:58:52;;;;;;;17.27;9.77;;;1.70;99.90;;;;;;5014800;28;20050;-87
2022/01/27 02:01:20;;;;;;;17.42;9.68;;;1.70;99.90;;;;;;5030022;28;20056;-87
2022/01/27 02:03:49;;;;;;;17.70;9.43;;;1.70;99.90;;;;;;5014958;28;20085;-87
2022/01/27 02:06:28;;;;;;;22.60;10.98;;;1.70;99.90;;;;;;5014876;28;20050;-87
2022/01/27 02:09:16;;;;;;;18.25;9.73;;;1.70;99.90;;;;;;5013337;28;20546;-88
2022/01/27 02:20:00;;;;;;;16.45;9.45;;;1.70;99.90;;;;;;5014702;28;20049;-88
2022/01/27 02:22:27;;;;;;;18.95;10.20;;;1.60;99.90;;;;;;5029859;28;20411;-88
2022/01/27 02:24:54;;;;;;;15.48;9.65;;;1.60;99.90;;;;;;5013561;28;20042;-87
2022/01/27 02:27:21;;;;;;;17.63;9.98;;;1.60;99.90;;;;;;5014550;28;20077;-89
2022/01/27 02:29:48;;;;;;;15.25;9.40;;;1.60;99.90;;;;;;5014312;28;20137;-86
2022/01/27 02:32:17;;;;;;;18.23;9.13;;;1.60;99.90;;;;;;5029861;28;20477;-88
2022/01/27 02:34:45;;;;;;;16.13;9.85;;;1.50;99.90;;;;;;5029875;28;20387;-87
2022/01/27 02:37:13;;;;;;;17.60;10.27;;;1.50;99.90;;;;;;5013523;28;20049;-87
2022/01/27 02:39:39;;;;;;;17.38;9.52;;;1.50;99.90;;;;;;5013819;28;20126;-87
2022/01/27 02:42:16;;;;;;;17.30;9.63;;;1.50;99.90;;;;;;5014227;28;20056;-89
2022/01/27 02:44:55;;;;;;;14.88;8.77;;;1.40;99.90;;;;;;5028932;28;20099;-88
2022/01/27 02:47:24;;;;;;;18.85;9.40;;;1.40;99.90;;;;;;5029612;28;20056;-87
2022/01/27 02:49:52;;;;;;;16.05;8.80;;;1.40;99.90;;;;;;5014238;28;20057;-89
2022/01/27 02:52:19;;;;;;;16.05;9.40;;;1.40;99.90;;;;;;5014028;28;20501;-88
2022/01/27 02:54:46;;;;;;;15.13;9.15;;;1.30;99.90;;;;;;5029426;28;20056;-88
2022/01/27 02:57:23;;;;;;;19.42;8.82;;;1.30;99.90;;;;;;5028475;28;20045;-89
2022/01/27 02:59:51;;;;;;;17.13;9.95;;;1.30;99.90;;;;;;5029562;28;20132;-87
2022/01/27 03:02:18;;;;;;;17.52;9.50;;;1.20;99.90;;;;;;5029102;28;20129;-87
2022/01/27 03:04:45;;;;;;;14.55;8.30;;;1.20;99.90;;;;;;5028912;28;20092;-87
2022/01/27 03:07:14;;;;;;;15.30;9.55;;;1.20;99.90;;;;;;5013631;28;20084;-87
2022/01/27 03:09:40;;;;;;;16.05;8.95;;;1.20;99.90;;;;;;5012996;28;20279;-89
2022/01/27 03:12:11;;;;;;;15.32;8.75;;;1.30;99.90;;;;;;5028714;28;20049;-87
2022/01/27 03:14:39;;;;;;;20.23;10.30;;;1.20;99.90;;;;;;5028648;28;20046;-87
2022/01/27 03:17:07;;;;;;;15.68;8.73;;;1.20;99.90;;;;;;5012701;28;20104;-87
2022/01/27 03:19:36;;;;;;;18.65;9.40;;;1.30;99.90;;;;;;5028560;28;20129;-89
2022/01/27 03:22:04;;;;;;;15.48;9.18;;;1.20;99.90;;;;;;5028995;28;20056;-87
2022/01/27 03:24:31;;;;;;;18.30;10.25;;;1.20;99.90;;;;;;5013163;28;20483;-87
2022/01/27 03:26:59;;;;;;;19.77;11.27;;;1.20;99.90;;;;;;5013552;28;20096;-90
2022/01/27 03:29:26;;;;;;;18.15;9.77;;;1.20;99.90;;;;;;5012380;28;20056;-88
2022/01/27 03:31:54;;;;;;;20.27;10.27;;;1.30;99.90;;;;;;5013614;28;20064;-87
2022/01/27 03:34:21;;;;;;;25.23;11.00;;;1.30;99.90;;;;;;5013126;28;20092;-87
2022/01/27 03:36:47;;;;;;;18.15;10.68;;;1.20;99.90;;;;;;5012273;28;20046;-88
2022/01/27 03:39:18;;;;;;;19.50;11.50;;;1.30;99.90;;;;;;5013113;28;20076;-91
2022/01/27 03:41:49;;;;;;;17.90;11.00;;;1.20;99.90;;;;;;5012438;28;20073;-88
2022/01/27 03:44:18;;;;;;;21.20;11.52;;;1.20;99.90;;;;;;5012094;28;20081;-87
2022/01/27 03:46:45;;;;;;;23.70;12.00;;;1.20;99.90;;;;;;5013301;28;20425;-86
2022/01/27 03:49:12;;;;;;;20.95;12.18;;;1.20;99.90;;;;;;5012295;28;20502;-88
2022/01/27 03:51:39;;;;;;;22.45;11.05;;;1.20;99.90;;;;;;5012067;28;20132;-88
2022/01/27 03:54:06;;;;;;;21.50;12.10;;;1.20;99.90;;;;;;5012950;28;20411;-90
2022/01/27 03:56:33;;;;;;;21.35;12.65;;;1.20;99.90;;;;;;5014250;28;20060;-86
2022/01/27 03:59:00;;;;;;;18.90;11.38;;;1.10;99.90;;;;;;5016317;28;20463;-89
2022/01/27 04:01:28;;;;;;;23.30;12.00;;;1.10;99.90;;;;;;5016074;28;20052;-88
2022/01/27 04:03:58;;;;;;;22.30;11.43;;;1.10;99.90;;;;;;5017339;28;20064;-87
2022/01/27 04:06:33;;;;;;;23.63;12.55;;;1.10;99.90;;;;;;5016789;28;20049;-87
2022/01/27 04:09:04;;;;;;;21.05;11.05;;;1.00;99.90;;;;;;5019195;28;20050;-87
2022/01/27 04:11:31;;;;;;;20.17;11.35;;;1.00;99.90;;;;;;5017158;28;20072;-87
2022/01/27 04:13:58;;;;;;;19.23;11.35;;;0.90;99.90;;;;;;5015504;28;20133;-87
2022/01/27 04:16:25;;;;;;;20.48;10.70;;;0.90;99.90;;;;;;5016528;28;20495;-87
2022/01/27 04:18:52;;;;;;;19.13;10.55;;;0.90;99.90;;;;;;5015781;28;20042;-89
2022/01/27 04:21:19;;;;;;;17.35;9.48;;;0.90;99.90;;;;;;5015837;28;20054;-88
2022/01/27 04:23:46;;;;;;;20.02;11.48;;;0.90;99.90;;;;;;5032129;28;20085;-87
2022/01/27 04:26:16;;;;;;;16.70;9.30;;;0.90;99.90;;;;;;5015533;28;20050;-86
2022/01/27 04:28:44;;;;;;;17.13;10.27;;;0.80;99.90;;;;;;5031707;28;20049;-88
2022/01/27 04:31:11;;;;;;;17.15;10.38;;;0.80;99.90;;;;;;5015582;28;20050;-89
2022/01/27 04:33:39;;;;;;;17.48;10.52;;;0.80;99.90;;;;;;5016729;28;20057;-89
2022/01/27 04:36:29;;;;;;;18.98;10.43;;;0.80;99.90;;;;;;5015392;28;20081;-88
2022/01/27 04:42:10;;;;;;;18.15;10.20;;;0.80;99.90;;;;;;4956293;29;20051;-90
2022/01/27 04:44:48;;;;;;;18.23;10.20;;;0.70;99.90;;;;;;4956048;29;20055;-87
2022/01/27 04:47:30;;;;;;;20.02;11.27;;;0.70;99.90;;;;;;4992664;28;20046;-89
2022/01/27 04:49:58;;;;;;;16.77;10.00;;;0.70;99.90;;;;;;5015254;28;20050;-87
2022/01/27 04:52:27;;;;;;;17.90;10.27;;;0.60;99.90;;;;;;5015221;28;20525;-87
2022/01/27 04:55:03;;;;;;;19.50;10.52;;;0.60;99.90;;;;;;5014981;28;20060;-87
2022/01/27 04:57:31;;;;;;;15.80;9.52;;;0.50;99.90;;;;;;5015111;28;20411;-89
2022/01/27 04:59:58;;;;;;;15.82;9.63;;;0.60;99.90;;;;;;5031386;28;20483;-87
2022/01/27 05:02:42;;;;;;;14.18;9.20;;;0.60;99.90;;;;;;5015700;28;20050;-88
2022/01/27 05:05:10;;;;;;;17.05;9.90;;;0.60;99.90;;;;;;5016168;28;20440;-88
2022/01/27 05:07:58;;;;;;;18.85;10.10;;;0.60;99.90;;;;;;5029339;28;20053;-88
2022/01/27 05:10:29;;;;;;;15.63;9.55;;;0.60;99.90;;;;;;5014220;28;20050;-86
2022/01/27 05:13:06;;;;;;;17.08;9.55;;;0.60;99.90;;;;;;5031385;28;20050;-89
2022/01/27 05:15:40;;;;;;;15.73;9.23;;;0.50;99.90;;;;;;5031049;28;20080;-87
2022/01/27 05:18:07;;;;;;;18.30;9.75;;;0.50;99.90;;;;;;5014719;28;20100;-88
2022/01/27 05:20:34;;;;;;;17.80;10.30;;;0.50;99.90;;;;;;5030865;28;20103;-87
2022/01/27 05:23:01;;;;;;;18.83;11.45;;;0.50;99.90;;;;;;5014383;28;20050;-87
2022/01/27 05:25:28;;;;;;;22.52;11.40;;;0.40;99.90;;;;;;5015324;28;20469;-87
2022/01/27 05:27:54;;;;;;;18.08;10.50;;;0.40;99.90;;;;;;5015095;28;20041;-88
2022/01/27 05:30:21;;;;;;;16.75;10.82;;;0.40;99.90;;;;;;5015791;28;20395;-91
2022/01/27 05:32:49;;;;;;;19.55;11.65;;;0.40;99.90;;;;;;5014604;28;20057;-87
2022/01/27 05:35:16;;;;;;;20.55;11.63;;;0.40;99.90;;;;;;5014320;28;20056;-89
2022/01/27 05:37:42;;;;;;;22.33;11.95;;;0.40;99.90;;;;;;5015317;28;20088;-88
2022/01/27 05:40:10;;;;;;;21.13;12.23;;;0.30;99.90;;;;;;5014350;28;20391;-86
2022/01/27 05:42:36;;;;;;;16.83;10.38;;;0.40;99.90;;;;;;5014497;28;20081;-91
2022/01/27 05:45:03;;;;;;;19.42;11.38;;;0.30;99.90;;;;;;5015425;28;20417;-90
2022/01/27 05:47:30;;;;;;;17.50;10.55;;;0.30;99.90;;;;;;5014173;28;20077;-89
2022/01/27 05:49:57;;;;;;;21.85;11.77;;;0.30;99.90;;;;;;5014522;28;20056;-89
2022/01/27 05:52:24;;;;;;;20.27;11.25;;;0.30;99.90;;;;;;5014182;28;20050;-88
2022/01/27 05:54:51;;;;;;;19.42;11.38;;;0.20;99.90;;;;;;5014944;28;20092;-88
2022/01/27 05:57:18;;;;;;;19.83;11.57;;;0.20;99.90;;;;;;5014203;28;20137;-88
2022/01/27 05:59:44;;;;;;;17.98;11.13;;;0.20;99.90;;;;;;5014100;28;20501;-90
2022/01/27 06:02:11;;;;;;;18.08;11.10;;;0.20;99.90;;;;;;5013557;28;20049;-89
2022/01/27 06:04:38;;;;;;;19.17;11.27;;;0.20;99.90;;;;;;5014802;28;20041;-89
2022/01/27 06:07:05;;;;;;;19.25;11.43;;;0.20;99.90;;;;;;5014546;28;20156;-87
2022/01/27 06:09:31;;;;;;;17.95;11.13;;;0.30;99.90;;;;;;5013725;28;20061;-89
2022/01/27 06:11:58;;;;;;;17.52;11.10;;;0.30;99.90;;;;;;5014004;28;20046;-90
2022/01/27 06:14:25;;;;;;;17.27;10.23;;;0.30;99.90;;;;;;5014648;28;20052;-87
2022/01/27 06:16:52;;;;;;;17.00;10.50;;;0.30;99.90;;;;;;5013904;28;20049;-89
2022/01/27 06:19:27;;;;;;;18.30;11.02;;;0.30;99.90;;;;;;5013295;28;20478;-90
2022/01/27 06:21:54;;;;;;;16.98;10.63;;;0.20;99.90;;;;;;5014065;28;20077;-90
2022/01/27 06:24:21;;;;;;;16.77;10.60;;;0.30;99.90;;;;;;5013643;28;20475;-93
2022/01/27 06:26:48;;;;;;;17.70;10.57;;;0.30;99.90;;;;;;5013744;28;20077;-87
2022/01/27 06:29:14;;;;;;;19.65;12.15;;;0.20;99.90;;;;;;5014790;28;20057;-89
2022/01/27 06:31:41;;;;;;;13.50;9.88;;;0.20;99.90;;;;;;5015097;28;20046;-91
2022/01/27 06:34:09;;;;;;;14.00;9.82;;;0.20;99.90;;;;;;5031221;28;20049;-89
2022/01/27 06:36:35;;;;;;;16.80;10.15;;;0.20;99.90;;;;;;5013499;28;20501;-89
2022/01/27 06:39:02;;;;;;;17.45;9.52;;;0.20;99.90;;;;;;5014017;28;20557;-89
2022/01/27 06:41:29;;;;;;;15.50;9.80;;;0.20;99.90;;;;;;5014242;28;20517;-89
2022/01/27 06:43:58;;;;;;;14.90;9.45;;;0.20;99.90;;;;;;5030169;28;20046;-89
2022/01/27 06:46:25;;;;;;;17.88;9.48;;;0.20;99.90;;;;;;5029556;28;20525;-89
2022/01/27 06:48:53;;;;;;;14.98;9.27;;;0.20;99.90;;;;;;5029566;28;20107;-87
2022/01/27 06:51:20;;;;;;;14.15;9.90;;;0.20;99.90;;;;;;5014030;28;20046;-89
2022/01/27 06:53:46;;;;;;;22.13;10.65;;;0.20;99.90;;;;;;5014283;28;20137;-89
2022/01/27 06:56:13;;;;;;;17.73;10.63;;;0.20;99.90;;;;;;5013006;28;20054;-88
2022/01/27 06:58:40;;;;;;;18.63;11.43;;;0.20;99.90;;;;;;5012911;28;20050;-89
2022/01/27 07:01:07;;;;;;;20.15;11.63;;;0.20;99.90;;;;;;5012970;28;20081;-87
2022/01/27 07:03:34;;;;;;;20.02;11.93;;;0.20;99.90;;;;;;5013054;28;20053;-87
2022/01/27 07:06:01;;;;;;;19.10;11.75;;;0.10;99.90;;;;;;5012896;28;20137;-89
2022/01/27 07:08:28;;;;;;;19.60;11.93;;;0.10;99.90;;;;;;5012459;28;20058;-88
2022/01/27 07:10:54;;;;;;;19.88;12.35;;;0.10;99.90;;;;;;5013798;28;20056;-88
2022/01/27 07:13:21;;;;;;;22.92;13.25;;;0.20;99.90;;;;;;5012879;28;20092;-86
2022/01/27 07:15:48;;;;;;;23.05;13.30;;;0.20;99.90;;;;;;5012272;28;20483;-86
2022/01/27 07:18:15;;;;;;;21.35;13.00;;;0.20;99.90;;;;;;5012748;28;20413;-87
2022/01/27 07:20:42;;;;;;;22.42;12.68;;;0.20;99.90;;;;;;5013030;28;20056;-87
2022/01/27 07:23:09;;;;;;;21.90;13.32;;;0.20;99.90;;;;;;5012475;28;20494;-88
2022/01/27 07:25:36;;;;;;;22.92;13.40;;;0.20;99.90;;;;;;5012534;28;20056;-88
2022/01/27 07:28:03;;;;;;;21.88;12.90;;;0.20;99.90;;;;;;5012841;28;20469;-89
2022/01/27 07:30:30;;;;;;;23.77;14.07;;;0.30;99.90;;;;;;5013452;28;20050;-87
2022/01/27 07:32:57;;;;;;;19.42;12.32;;;0.30;99.90;;;;;;5012732;28;20173;-88
2022/01/27 07:35:24;;;;;;;20.42;12.93;;;0.30;99.90;;;;;;5013420;28;20046;-92
2022/01/27 07:37:51;;;;;;;33.15;13.93;;;0.30;99.90;;;;;;5012988;28;20050;-90
2022/01/27 07:40:17;;;;;;;18.85;11.55;;;0.30;99.90;;;;;;5012972;28;20085;-87
2022/01/27 07:43:04;;;;;;;18.90;12.13;;;0.40;99.90;;;;;;5013054;28;20068;-87
2022/01/27 07:45:31;;;;;;;20.05;11.82;;;0.40;99.90;;;;;;5012583;28;20056;-88
2022/01/27 07:47:58;;;;;;;19.10;11.25;;;0.40;99.90;;;;;;5012843;28;20521;-88
2022/01/27 07:50:29;;;;;;;19.92;11.43;;;0.50;99.90;;;;;;5013787;28;20064;-90
2022/01/27 07:52:56;;;;;;;18.58;11.20;;;0.50;99.90;;;;;;5013980;28;20049;-87
2022/01/27 07:55:22;;;;;;;19.33;10.98;;;0.50;99.90;;;;;;5012582;28;20485;-89
2022/01/27 07:57:52;;;;;;;18.60;10.88;;;0.50;99.90;;;;;;5013837;28;20054;-87
2022/01/27 08:00:19;;;;;;;21.85;12.15;;;0.50;99.90;;;;;;5011656;28;20053;-89
2022/01/27 08:02:46;;;;;;;18.10;11.23;;;0.50;99.90;;;;;;5013894;28;20057;-88
2022/01/27 08:05:14;;;;;;;20.33;10.45;;;0.50;99.90;;;;;;5012584;28;20084;-87
2022/01/27 08:07:40;;;;;;;20.98;11.88;;;0.50;99.90;;;;;;5012444;28;20046;-89
2022/01/27 08:10:07;;;;;;;19.75;12.02;;;0.50;99.90;;;;;;5012184;28;20073;-88
2022/01/27 08:12:43;;;;;;;20.45;12.05;;;0.50;99.90;;;;;;5013651;28;20553;-88
2022/01/27 08:15:12;;;;;;;22.52;12.15;;;0.50;99.90;;;;;;5012703;28;20054;-89
2022/01/27 08:17:39;;;;;;;21.50;11.90;;;0.50;99.90;;;;;;5012591;28;20457;-89
2022/01/27 08:20:06;;;;;;;21.17;12.30;;;0.60;99.90;;;;;;5012288;28;20152;-86
2022/01/27 08:22:44;;;;;;;21.27;11.32;;;0.60;99.90;;;;;;5012451;28;20133;-91
2022/01/27 08:25:11;;;;;;;18.75;11.38;;;0.60;99.90;;;;;;5012367;28;20144;-88
2022/01/27 08:27:40;;;;;;;21.08;12.98;;;0.70;99.90;;;;;;5013438;28;20391;-84
2022/01/27 08:30:08;;;;;;;22.73;11.88;;;0.70;99.90;;;;;;5012577;28;20056;-89
2022/01/27 08:32:49;;;;;;;24.55;13.00;;;0.70;99.90;;;;;;5012001;28;20063;-90
2022/01/27 08:35:19;;;;;;;24.95;13.07;;;0.80;99.90;;;;;;5012077;28;20109;-90
2022/01/27 08:37:46;;;;;;;23.75;12.98;;;0.80;99.90;;;;;;5012305;28;20092;-88
2022/01/27 08:40:14;;;;;;;23.08;13.20;;;0.80;99.90;;;;;;5012289;28;20077;-91
2022/01/27 08:43:02;;;;;;;20.25;12.25;;;0.90;99.90;;;;;;5013519;28;20045;-87
2022/01/27 08:45:29;;;;;;;17.92;11.48;;;0.90;99.90;;;;;;5016459;28;20052;-88
2022/01/27 08:47:58;;;;;;;24.92;13.30;;;0.90;99.90;;;;;;5016008;28;20048;-90
2022/01/27 08:50:25;;;;;;;21.05;12.88;;;0.90;99.90;;;;;;5015620;28;20054;-91
2022/01/27 08:52:52;;;;;;;25.33;12.15;;;0.90;99.90;;;;;;5016731;28;20120;-89
2022/01/27 08:55:21;;;;;;;23.65;12.13;;;1.00;99.90;;;;;;5015029;28;20046;-89
2022/01/27 08:57:49;;;;;;;22.40;12.25;;;1.00;99.90;;;;;;5015375;28;20045;-88
2022/01/27 09:00:19;;;;;;;22.15;12.25;;;1.00;99.90;;;;;;5015672;28;20123;-90
2022/01/27 09:03:06;;;;;;;22.98;12.60;;;1.00;99.90;;;;;;5015842;28;20104;-89
2022/01/27 09:05:33;;;;;;;23.15;13.43;;;1.00;99.90;;;;;;5015178;28;20081;-88
2022/01/27 09:08:00;;;;;;;24.67;13.57;;;1.10;99.90;;;;;;5015172;28;20042;-89
2022/01/27 09:10:31;;;;;;;22.92;13.70;;;1.10;99.90;;;;;;5014758;28;20255;-89
2022/01/27 09:13:00;;;;;;;22.80;12.85;;;1.20;99.90;;;;;;5015832;28;20073;-89
2022/01/27 09:15:27;;;;;;;19.10;12.40;;;1.20;99.90;;;;;;5014982;28;20076;-88
2022/01/27 09:17:56;;;;;;;26.88;13.02;;;1.30;99.90;;;;;;5016124;28;20497;-91
2022/01/27 09:20:24;;;;;;;24.88;12.73;;;1.30;99.90;;;;;;5016233;28;20152;-87
2022/01/27 09:22:53;;;;;;;22.88;12.45;;;1.40;99.90;;;;;;5016197;28;20065;-88
2022/01/27 09:25:25;;;;;;;20.90;12.77;;;1.50;99.90;;;;;;5015075;28;20050;-88
2022/01/27 09:27:52;;;;;;;22.38;13.18;;;1.40;99.90;;;;;;5015232;28;20084;-88
2022/01/27 09:30:19;;;;;;;24.55;12.75;;;1.50;99.90;;;;;;5015095;28;20046;-88
2022/01/27 09:32:46;;;;;;;19.77;11.98;;;1.60;99.90;;;;;;5015235;28;20137;-88
2022/01/27 09:35:34;;;;;;;26.50;12.43;;;1.70;99.90;;;;;;5015087;28;20072;-91
2022/01/27 09:38:02;;;;;;;20.85;12.20;;;1.80;99.90;;;;;;5015034;28;20058;-91
2022/01/27 09:40:29;;;;;;;24.42;12.68;;;1.80;99.90;;;;;;5014594;28;20053;-87
2022/01/27 09:42:56;;;;;;;22.65;12.55;;;1.80;99.90;;;;;;5015138;28;20061;-88
2022/01/27 09:45:24;;;;;;;23.52;13.35;;;2.00;99.90;;;;;;5014333;28;20060;-87
2022/01/27 09:48:01;;;;;;;24.92;13.45;;;2.20;99.90;;;;;;5014268;28;20486;-90
2022/01/27 09:53:00;;;;;;;24.98;12.88;;;2.20;99.90;;;;;;5015566;28;20054;-89
2022/01/27 09:55:27;;;;;;;24.65;13.60;;;2.30;99.90;;;;;;5014618;28;20052;-89
2022/01/27 09:58:04;;;;;;;27.08;13.90;;;2.20;99.90;;;;;;5014570;28;20506;-89
2022/01/27 10:00:30;;;;;;;23.40;13.13;;;2.00;99.90;;;;;;5014361;28;20049;-89
2022/01/27 10:03:02;;;;;;;21.45;12.43;;;2.00;99.90;;;;;;5014355;28;20052;-90
2022/01/27 10:05:29;;;;;;;23.75;13.68;;;2.10;99.90;;;;;;5014192;28;20084;-89
2022/01/27 10:08:10;;;;;;;24.58;13.80;;;2.20;99.90;;;;;;5014287;28;20046;-88
2022/01/27 10:10:43;;;;;;;22.63;11.93;;;2.40;99.90;;;;;;5014663;28;20057;-91
2022/01/27 10:13:25;;;;;;;25.95;14.38;;;2.50;99.90;;;;;;5013881;28;20598;-89
2022/01/27 10:15:54;;;;;;;25.40;13.52;;;2.30;99.90;;;;;;5013888;28;20050;-91
2022/01/27 10:18:24;;;;;;;22.35;12.85;;;2.20;99.90;;;;;;5014430;28;20049;-90
2022/01/27 10:21:04;;;;;;;23.55;12.50;;;2.20;99.90;;;;;;5014602;28;20042;-89
2022/01/27 10:23:37;;;;;;;20.92;12.38;;;2.20;99.90;;;;;;5014493;28;20506;-89
2022/01/27 10:26:14;;;;;;;32.47;14.18;;;2.40;99.90;;;;;;5016163;28;20041;-91
2022/01/27 10:28:50;;;;;;;23.05;13.38;;;2.40;99.90;;;;;;5014124;28;20506;-91
2022/01/27 10:31:23;;;;;;;24.83;13.57;;;2.50;99.90;;;;;;5013786;28;20497;-89
2022/01/27 10:34:02;;;;;;;24.55;13.30;;;2.60;99.90;;;;;;5013227;28;20080;-88
2022/01/27 10:36:40;;;;;;;26.27;14.32;;;2.60;99.90;;;;;;5013798;28;20112;-86
2022/01/27 10:39:16;;;;;;;24.13;13.30;;;2.60;99.90;;;;;;5014384;28;20136;-88
2022/01/27 10:42:05;;;;;;;23.98;13.35;;;2.70;99.90;;;;;;5013318;28;20046;-90
2022/01/27 10:44:46;;;;;;;28.67;14.02;;;2.70;99.90;;;;;;5014320;28;20054;-90
2022/01/27 10:47:22;;;;;;;27.17;12.93;;;2.70;99.90;;;;;;5013253;28;20049;-88
2022/01/27 10:50:01;;;;;;;22.55;12.35;;;2.60;99.90;;;;;;5014488;28;20054;-87
2022/01/27 10:55:11;;;;;;;22.48;12.68;;;2.50;99.90;;;;;;5014339;28;20483;-87
2022/01/27 10:57:38;;;;;;;24.57;13.57;;;2.30;99.90;;;;;;5013053;28;20422;-89
2022/01/27 11:00:14;;;;;;;24.13;13.55;;;2.20;99.90;;;;;;5013060;28;20291;-86
2022/01/27 11:02:52;;;;;;;27.45;12.77;;;2.10;99.90;;;;;;5012967;28;20060;-92
2022/01/27 11:05:22;;;;;;;26.98;13.85;;;2.00;99.90;;;;;;5012481;28;20046;-87
2022/01/27 11:07:48;;;;;;;24.45;13.65;;;1.90;99.90;;;;;;5014705;28;20088;-89
2022/01/27 11:10:17;;;;;;;29.45;14.13;;;1.90;99.90;;;;;;5014664;28;20045;-87
2022/01/27 11:12:45;;;;;;;25.27;13.38;;;1.80;99.90;;;;;;5013151;28;20056;-89
2022/01/27 11:15:15;;;;;;;26.73;13.63;;;1.80;99.90;;;;;;5013798;28;20046;-88
2022/01/27 11:17:43;;;;;;;26.48;13.85;;;1.80;99.90;;;;;;5012895;28;20062;-88
2022/01/27 11:20:27;;;;;;;26.45;13.18;;;1.70;99.90;;;;;;5014110;28;20085;-88
2022/01/27 11:28:01;;;;;;;20.50;11.50;;;1.70;99.90;;;;;;5013817;28;20088;-88
2022/01/27 11:30:47;;;;;;;22.90;12.27;;;1.70;99.90;;;;;;5012717;28;20301;-88
2022/01/27 11:33:14;;;;;;;22.45;10.75;;;1.80;99.90;;;;;;5013802;28;20410;-91
2022/01/27 11:36:10;;;;;;;22.40;12.07;;;1.90;99.90;;;;;;5012641;28;20050;-87
2022/01/27 11:38:39;;;;;;;21.08;11.00;;;2.00;99.90;;;;;;5012625;28;20415;-88
2022/01/27 11:41:06;;;;;;;24.45;11.32;;;2.00;99.90;;;;;;5012789;28;20081;-86
2022/01/27 11:43:35;;;;;;;22.58;10.93;;;1.90;99.90;;;;;;5012448;28;20049;-90
2022/01/27 11:46:20;;;;;;;23.52;11.20;;;1.90;99.90;;;;;;5013790;28;20124;-89
2022/01/27 11:48:47;;;;;;;23.25;10.50;;;1.90;99.90;;;;;;5012268;28;20050;-90
2022/01/27 11:51:15;;;;;;;16.67;9.75;;;2.00;99.90;;;;;;5012625;28;20052;-87
2022/01/27 11:53:43;;;;;;;17.67;9.95;;;2.10;99.90;;;;;;5028822;28;20069;-86
2022/01/27 11:56:31;;;;;;;15.18;8.45;;;2.30;99.90;;;;;;5028840;28;20052;-89
2022/01/27 11:59:00;;;;;;;13.18;8.75;;;2.50;99.90;;;;;;5028888;28;20045;-87
2022/01/27 12:01:29;;;;;;;12.48;7.85;;;2.40;99.90;;;;;;5029072;28;20065;-88
2022/01/27 12:04:07;;;;;;;13.73;7.53;;;2.30;99.90;;;;;;5028761;28;20495;-90
2022/01/27 12:06:50;;;;;;;13.27;7.38;;;2.20;99.90;;;;;;5028769;28;20144;-87
2022/01/27 12:09:17;;;;;;;12.50;7.00;;;2.20;99.90;;;;;;5013238;28;20060;-88
2022/01/27 12:11:53;;;;;;;12.02;6.55;;;2.30;99.90;;;;;;5013855;28;20050;-89
2022/01/27 12:14:27;;;;;;;15.77;6.95;;;2.30;99.90;;;;;;5012640;28;20414;-87
2022/01/27 12:17:09;;;;;;;9.90;6.57;;;2.30;99.90;;;;;;5030300;28;20085;-88
2022/01/27 12:19:54;;;;;;;12.80;7.03;;;2.30;99.90;;;;;;5032400;28;20050;-87
2022/01/27 12:22:52;;;;;;;11.13;7.07;;;2.20;99.90;;;;;;5017023;28;20060;-89
2022/01/27 12:25:20;;;;;;;13.20;6.28;;;2.20;99.90;;;;;;5011876;28;20061;-89
2022/01/27 12:27:52;;;;;;;11.30;6.18;;;2.30;99.90;;;;;;5032382;28;20056;-87
2022/01/27 12:30:20;;;;;;;11.20;6.53;;;2.30;99.90;;;;;;5031779;28;20050;-88
2022/01/27 12:32:47;;;;;;;8.70;5.57;;;2.40;99.90;;;;;;5016823;28;20063;-88
2022/01/27 12:35:16;;;;;;;18.70;6.78;;;2.40;99.90;;;;;;5031562;28;20092;-88
2022/01/27 12:37:46;;;;;;;7.03;4.47;;;2.50;99.90;;;;;;5015235;28;20048;-89
2022/01/27 12:40:29;;;;;;;13.02;4.97;;;2.50;99.90;;;;;;5031490;28;20383;-88
2022/01/27 12:43:01;;;;;;;7.65;4.53;;;2.50;99.90;;;;;;5013680;28;20050;-86
2022/01/27 12:45:33;;;;;;;8.35;4.57;;;2.60;99.90;;;;;;5013016;28;20077;-87
2022/01/27 12:48:11;;;;;;;7.00;4.10;;;2.60;99.90;;;;;;5031134;28;20406;-88
2022/01/27 12:50:38;;;;;;;8.20;4.32;;;2.70;99.90;;;;;;5013475;28;20054;-87
2022/01/27 12:53:11;;;;;;;4.93;3.72;;;2.70;99.90;;;;;;5030996;28;20534;-87
2022/01/27 12:55:40;;;;;;;5.22;3.53;;;2.70;99.90;;;;;;5031318;28;20060;-87
2022/01/27 12:58:17;;;;;;;7.22;3.83;;;2.70;99.90;;;;;;5028661;28;20481;-89
2022/01/27 13:00:46;;;;;;;4.32;3.47;;;2.80;99.90;;;;;;5032064;28;20049;-87
2022/01/27 13:03:13;;;;;;;5.97;3.65;;;2.70;99.90;;;;;;5031748;28;20064;-87
2022/01/27 13:05:45;;;;;;;4.07;3.20;;;2.70;99.90;;;;;;5015877;28;20050;-88
2022/01/27 13:08:13;;;;;;;3.33;3.03;;;2.70;99.90;;;;;;5031779;28;20100;-87
2022/01/27 13:10:54;;;;;;;5.70;3.63;;;2.80;99.90;;;;;;5031404;28;20085;-86
2022/01/27 13:13:25;;;;;;;4.72;3.22;;;2.70;99.90;;;;;;5031198;28;20469;-87
2022/01/27 13:16:02;;;;;;;4.10;3.30;;;2.70;99.90;;;;;;5030913;28;20049;-89
2022/01/27 13:18:38;;;;;;;3.97;3.55;;;2.70;99.90;;;;;;5031071;28;20054;-88
2022/01/27 13:21:16;;;;;;;4.05;3.22;;;2.70;99.90;;;;;;5030832;28;20046;-91
2022/01/27 13:23:46;;;;;;;6.28;3.05;;;2.70;99.90;;;;;;5031326;28;20057;-87
2022/01/27 13:26:16;;;;;;;5.22;3.47;;;2.60;99.90;;;;;;5030692;28;20561;-92
2022/01/27 13:28:45;;;;;;;4.38;3.55;;;2.60;99.90;;;;;;5030414;28;20058;-87
2022/01/27 13:31:14;;;;;;;5.20;3.17;;;2.50;99.90;;;;;;5030663;28;20169;-88
2022/01/27 13:33:43;;;;;;;5.50;3.00;;;2.50;99.90;;;;;;5030977;28;20060;-88
2022/01/27 13:36:25;;;;;;;3.78;3.33;;;2.40;99.90;;;;;;5030626;28;20050;-88